SWA3607 KPHX-KELP
Flight info
| Callsign | SWA3607 |
|---|---|
| Flight time | 1h 2m |
| Altitude | 37000 |
| Route | ECLPS1 PHASE TEEES MOLLY5 |
| Aircraft | B738/M-SDE2E3FGHIRWXY/LB1 |
Departure
| Time | 2026-05-04 02:45 |
|---|---|
| Airport | Phoenix Sky Harbor International Airport (KPHX) |
Arrival
| Time | 2026-05-04 03:47 |
|---|---|
| Airport | El Paso International Airport (KELP) |
| Time | Latitude | Longitude | Altitude | Speed | Heading |
|---|---|---|---|---|---|
| 2026-05-04 02:28 | 33.43404 | -111.99867 | 1116 ft | 0 kts | 293° |
| 2026-05-04 02:38 | 33.43398 | -111.99850 | 1115 ft | 4 kts | 270° |
| 2026-05-04 02:38 | 33.43406 | -111.99828 | 1114 ft | 4 kts | 198° |
| 2026-05-04 02:39 | 33.43417 | -111.99825 | 1121 ft | 0 kts | 180° |
| 2026-05-04 02:42 | 33.43386 | -111.99825 | 1117 ft | 5 kts | 180° |
| 2026-05-04 02:42 | 33.43350 | -111.99825 | 1118 ft | 5 kts | 181° |
| 2026-05-04 02:42 | 33.43340 | -111.99825 | 1118 ft | 0 kts | 179° |
| 2026-05-04 02:43 | 33.43317 | -111.99821 | 1121 ft | 10 kts | 166° |
| 2026-05-04 02:43 | 33.43213 | -111.99706 | 1119 ft | 33 kts | 90° |
| 2026-05-04 02:43 | 33.43213 | -111.99437 | 1122 ft | 23 kts | 91° |
| 2026-05-04 02:43 | 33.43149 | -111.99349 | 1133 ft | 12 kts | 178° |
| 2026-05-04 02:44 | 33.43105 | -111.99424 | 1131 ft | 13 kts | 265° |
| 2026-05-04 02:44 | 33.43105 | -111.99737 | 1131 ft | 71 kts | 270° |
| 2026-05-04 02:44 | 33.43105 | -112.00596 | 1130 ft | 133 kts | 270° |
| 2026-05-04 02:44 | 33.43112 | -112.01902 | 1247 ft | 174 kts | 270° |
| 2026-05-04 02:45 | 33.43096 | -112.03369 | 2007 ft | 174 kts | 266° |
| 2026-05-04 02:45 | 33.43063 | -112.04798 | 2771 ft | 179 kts | 264° |
| 2026-05-04 02:45 | 33.43014 | -112.06395 | 3023 ft | 204 kts | 263° |
| 2026-05-04 02:45 | 33.42747 | -112.08127 | 3306 ft | 218 kts | 247° |
| 2026-05-04 02:46 | 33.42086 | -112.09804 | 3731 ft | 231 kts | 248° |
| 2026-05-04 02:46 | 33.41556 | -112.11737 | 4021 ft | 255 kts | 250° |
| 2026-05-04 02:46 | 33.40974 | -112.13761 | 4766 ft | 258 kts | 248° |
| 2026-05-04 02:46 | 33.40258 | -112.15742 | 5557 ft | 260 kts | 237° |
| 2026-05-04 02:47 | 33.38982 | -112.17176 | 6468 ft | 254 kts | 206° |
| 2026-05-04 02:47 | 33.37272 | -112.17809 | 7157 ft | 260 kts | 191° |
| 2026-05-04 02:47 | 33.35452 | -112.17772 | 7880 ft | 266 kts | 169° |
| 2026-05-04 02:47 | 33.33664 | -112.17177 | 8715 ft | 267 kts | 166° |
| 2026-05-04 02:48 | 33.31868 | -112.16528 | 9419 ft | 272 kts | 165° |
| 2026-05-04 02:48 | 33.30052 | -112.15863 | 10163 ft | 274 kts | 163° |
| 2026-05-04 02:48 | 33.28349 | -112.14676 | 10447 ft | 301 kts | 141° |
| 2026-05-04 02:48 | 33.26798 | -112.12854 | 10605 ft | 324 kts | 138° |
| 2026-05-04 02:49 | 33.25155 | -112.10885 | 10773 ft | 345 kts | 137° |
| 2026-05-04 02:49 | 33.23758 | -112.08530 | 11159 ft | 363 kts | 116° |
| 2026-05-04 02:49 | 33.22943 | -112.05654 | 11854 ft | 367 kts | 110° |
| 2026-05-04 02:49 | 33.22194 | -112.02727 | 12489 ft | 372 kts | 110° |
| 2026-05-04 02:50 | 33.21435 | -111.99736 | 13020 ft | 380 kts | 110° |
| 2026-05-04 02:50 | 33.20660 | -111.96698 | 13647 ft | 385 kts | 110° |
| 2026-05-04 02:50 | 33.19870 | -111.93630 | 14225 ft | 389 kts | 111° |
| 2026-05-04 02:50 | 33.19062 | -111.90519 | 14781 ft | 395 kts | 111° |
| 2026-05-04 02:51 | 33.18239 | -111.87371 | 15354 ft | 400 kts | 111° |
| 2026-05-04 02:51 | 33.17402 | -111.84183 | 15927 ft | 405 kts | 111° |
| 2026-05-04 02:51 | 33.16551 | -111.80952 | 16492 ft | 410 kts | 111° |
| 2026-05-04 02:51 | 33.15690 | -111.77687 | 17079 ft | 415 kts | 111° |
| 2026-05-04 02:52 | 33.14817 | -111.74379 | 17669 ft | 420 kts | 111° |
| 2026-05-04 02:52 | 33.13933 | -111.71036 | 18213 ft | 425 kts | 111° |
| 2026-05-04 02:52 | 33.13038 | -111.67653 | 18696 ft | 430 kts | 111° |
| 2026-05-04 02:52 | 33.12132 | -111.64234 | 19199 ft | 434 kts | 111° |
| 2026-05-04 02:53 | 33.11215 | -111.60777 | 19664 ft | 440 kts | 111° |
| 2026-05-04 02:53 | 33.10287 | -111.57280 | 20138 ft | 445 kts | 111° |
| 2026-05-04 02:53 | 33.09349 | -111.53748 | 20604 ft | 449 kts | 111° |
| 2026-05-04 02:53 | 33.08399 | -111.50180 | 21071 ft | 454 kts | 111° |
| 2026-05-04 02:54 | 33.07437 | -111.46575 | 21497 ft | 459 kts | 111° |
| 2026-05-04 02:54 | 33.06196 | -111.43081 | 21874 ft | 458 kts | 124° |
| 2026-05-04 02:54 | 33.04489 | -111.39874 | 22342 ft | 459 kts | 128° |
| 2026-05-04 02:54 | 33.02694 | -111.36716 | 22800 ft | 462 kts | 129° |
| 2026-05-04 02:55 | 32.99032 | -111.30323 | 23584 ft | 471 kts | 129° |
| 2026-05-04 02:55 | 32.97200 | -111.27065 | 23930 ft | 475 kts | 128° |
| 2026-05-04 02:55 | 32.95368 | -111.23768 | 24296 ft | 479 kts | 128° |
| 2026-05-04 02:56 | 32.93525 | -111.20429 | 24635 ft | 483 kts | 128° |
| 2026-05-04 02:56 | 32.91678 | -111.17070 | 24972 ft | 488 kts | 128° |
| 2026-05-04 02:56 | 32.89815 | -111.13683 | 25307 ft | 491 kts | 128° |
| 2026-05-04 02:56 | 32.87938 | -111.10271 | 25623 ft | 495 kts | 128° |
| 2026-05-04 02:57 | 32.86040 | -111.06829 | 25902 ft | 499 kts | 128° |
| 2026-05-04 02:57 | 32.84129 | -111.03366 | 26217 ft | 503 kts | 128° |
| 2026-05-04 02:57 | 32.82199 | -110.99874 | 26533 ft | 506 kts | 128° |
| 2026-05-04 02:57 | 32.80257 | -110.96365 | 26862 ft | 510 kts | 128° |
| 2026-05-04 02:58 | 32.78303 | -110.92836 | 27157 ft | 513 kts | 128° |
| 2026-05-04 02:58 | 32.76331 | -110.89282 | 27444 ft | 516 kts | 129° |
| 2026-05-04 02:58 | 32.74350 | -110.85712 | 27737 ft | 519 kts | 129° |
| 2026-05-04 02:58 | 32.72358 | -110.82123 | 28045 ft | 522 kts | 129° |
| 2026-05-04 02:59 | 32.70379 | -110.78563 | 28326 ft | 525 kts | 129° |
| 2026-05-04 02:59 | 32.68356 | -110.74926 | 28541 ft | 529 kts | 128° |
| 2026-05-04 02:59 | 32.66322 | -110.71274 | 28758 ft | 533 kts | 128° |
| 2026-05-04 02:59 | 32.64380 | -110.67498 | 29020 ft | 541 kts | 119° |
| 2026-05-04 03:00 | 32.63150 | -110.63242 | 29261 ft | 550 kts | 107° |
| 2026-05-04 03:00 | 32.62230 | -110.58833 | 29536 ft | 552 kts | 105° |
| 2026-05-04 03:00 | 32.61337 | -110.54391 | 29766 ft | 555 kts | 105° |
| 2026-05-04 03:00 | 32.60427 | -110.49927 | 30043 ft | 557 kts | 106° |
| 2026-05-04 03:01 | 32.59489 | -110.45468 | 30353 ft | 558 kts | 106° |
| 2026-05-04 03:01 | 32.58524 | -110.41015 | 30624 ft | 559 kts | 107° |
| 2026-05-04 03:01 | 32.57535 | -110.36546 | 30897 ft | 560 kts | 107° |
| 2026-05-04 03:01 | 32.56535 | -110.32078 | 31111 ft | 563 kts | 107° |
| 2026-05-04 03:02 | 32.55523 | -110.27579 | 31298 ft | 566 kts | 107° |
| 2026-05-04 03:02 | 32.54511 | -110.23077 | 31642 ft | 564 kts | 107° |
| 2026-05-04 03:02 | 32.53502 | -110.18584 | 31902 ft | 565 kts | 107° |
| 2026-05-04 03:02 | 32.52491 | -110.14078 | 32149 ft | 567 kts | 107° |
| 2026-05-04 03:03 | 32.51476 | -110.09559 | 32356 ft | 569 kts | 107° |
| 2026-05-04 03:03 | 32.50456 | -110.05024 | 32569 ft | 570 kts | 107° |
| 2026-05-04 03:03 | 32.49431 | -110.00478 | 32832 ft | 571 kts | 107° |
| 2026-05-04 03:03 | 32.48404 | -109.95926 | 33083 ft | 573 kts | 107° |
| 2026-05-04 03:04 | 32.47373 | -109.91371 | 33314 ft | 574 kts | 107° |
| 2026-05-04 03:04 | 32.46339 | -109.86807 | 33564 ft | 575 kts | 108° |
| 2026-05-04 03:04 | 32.45299 | -109.82224 | 33817 ft | 577 kts | 108° |
| 2026-05-04 03:04 | 32.44256 | -109.77639 | 34008 ft | 578 kts | 107° |
| 2026-05-04 03:05 | 32.43277 | -109.73015 | 34226 ft | 579 kts | 102° |
| 2026-05-04 03:05 | 32.42567 | -109.68326 | 34485 ft | 579 kts | 98° |
| 2026-05-04 03:05 | 32.42018 | -109.63604 | 34746 ft | 579 kts | 97° |
| 2026-05-04 03:05 | 32.41521 | -109.58878 | 35019 ft | 578 kts | 97° |
| 2026-05-04 03:06 | 32.41019 | -109.54228 | 35289 ft | 577 kts | 97° |
| 2026-05-04 03:06 | 32.40473 | -109.49529 | 35558 ft | 576 kts | 98° |
| 2026-05-04 03:06 | 32.39892 | -109.44850 | 35875 ft | 573 kts | 98° |
| 2026-05-04 03:06 | 32.39291 | -109.40203 | 36206 ft | 571 kts | 99° |
| 2026-05-04 03:07 | 32.38684 | -109.35579 | 36614 ft | 566 kts | 99° |
| 2026-05-04 03:07 | 32.38082 | -109.31002 | 37017 ft | 562 kts | 99° |
| 2026-05-04 03:07 | 32.37483 | -109.26423 | 37052 ft | 565 kts | 99° |
| 2026-05-04 03:08 | 32.36287 | -109.17231 | 37042 ft | 564 kts | 99° |
| 2026-05-04 03:08 | 32.35235 | -109.08097 | 37040 ft | 558 kts | 95° |
| 2026-05-04 03:09 | 32.34408 | -108.98987 | 37058 ft | 556 kts | 95° |
| 2026-05-04 03:09 | 32.33575 | -108.89918 | 37070 ft | 554 kts | 95° |
| 2026-05-04 03:10 | 32.32692 | -108.80871 | 37084 ft | 554 kts | 96° |
| 2026-05-04 03:10 | 32.31785 | -108.71813 | 37253 ft | 556 kts | 95° |
| 2026-05-04 03:11 | 32.30870 | -108.62721 | 37264 ft | 558 kts | 95° |
| 2026-05-04 03:11 | 32.29960 | -108.53734 | 37197 ft | 538 kts | 95° |
| 2026-05-04 03:11 | 32.29518 | -108.49388 | 37161 ft | 525 kts | 95° |
| 2026-05-04 03:12 | 32.29092 | -108.45208 | 37157 ft | 518 kts | 96° |
| 2026-05-04 03:12 | 32.28227 | -108.36729 | 37157 ft | 524 kts | 95° |
| 2026-05-04 03:13 | 32.27337 | -108.28073 | 36662 ft | 543 kts | 95° |
| 2026-05-04 03:13 | 32.26869 | -108.23598 | 35870 ft | 551 kts | 96° |
| 2026-05-04 03:13 | 32.26365 | -108.19095 | 35138 ft | 556 kts | 96° |
| 2026-05-04 03:13 | 32.25838 | -108.14550 | 34422 ft | 561 kts | 96° |
| 2026-05-04 03:14 | 32.25299 | -108.09972 | 33813 ft | 562 kts | 96° |
| 2026-05-04 03:14 | 32.24762 | -108.05404 | 33240 ft | 561 kts | 96° |
| 2026-05-04 03:14 | 32.24230 | -108.00852 | 32776 ft | 557 kts | 96° |
| 2026-05-04 03:14 | 32.23706 | -107.96349 | 32392 ft | 551 kts | 97° |
| 2026-05-04 03:15 | 32.23188 | -107.91891 | 32040 ft | 545 kts | 97° |
| 2026-05-04 03:15 | 32.22674 | -107.87481 | 31684 ft | 539 kts | 97° |
| 2026-05-04 03:15 | 32.22164 | -107.83120 | 31312 ft | 534 kts | 97° |
| 2026-05-04 03:15 | 32.21657 | -107.78795 | 31090 ft | 529 kts | 97° |
| 2026-05-04 03:16 | 32.21159 | -107.74516 | 30726 ft | 524 kts | 97° |
| 2026-05-04 03:16 | 32.20667 | -107.70272 | 30408 ft | 518 kts | 97° |
| 2026-05-04 03:16 | 32.20184 | -107.66085 | 30095 ft | 512 kts | 97° |
| 2026-05-04 03:16 | 32.19704 | -107.61945 | 29673 ft | 507 kts | 98° |
| 2026-05-04 03:17 | 32.19227 | -107.57842 | 29206 ft | 503 kts | 98° |
| 2026-05-04 03:17 | 32.18752 | -107.53773 | 28695 ft | 498 kts | 98° |
| 2026-05-04 03:17 | 32.18279 | -107.49736 | 28234 ft | 495 kts | 98° |
| 2026-05-04 03:17 | 32.17807 | -107.45727 | 27775 ft | 491 kts | 98° |
| 2026-05-04 03:18 | 32.17339 | -107.41759 | 27337 ft | 486 kts | 98° |
| 2026-05-04 03:18 | 32.16874 | -107.37824 | 26926 ft | 482 kts | 98° |
| 2026-05-04 03:18 | 32.16412 | -107.33926 | 26550 ft | 477 kts | 98° |
| 2026-05-04 03:18 | 32.15953 | -107.30067 | 26161 ft | 473 kts | 98° |
| 2026-05-04 03:19 | 32.15503 | -107.26291 | 25787 ft | 469 kts | 98° |
| 2026-05-04 03:19 | 32.15043 | -107.22445 | 25413 ft | 466 kts | 98° |
| 2026-05-04 03:19 | 32.14598 | -107.18724 | 25064 ft | 462 kts | 98° |
| 2026-05-04 03:19 | 32.14149 | -107.14991 | 24712 ft | 458 kts | 98° |
| 2026-05-04 03:20 | 32.13703 | -107.11284 | 24361 ft | 455 kts | 98° |
| 2026-05-04 03:20 | 32.13259 | -107.07602 | 24008 ft | 451 kts | 98° |
| 2026-05-04 03:20 | 32.12818 | -107.03954 | 23668 ft | 448 kts | 98° |
| 2026-05-04 03:20 | 32.12379 | -107.00335 | 23297 ft | 443 kts | 98° |
| 2026-05-04 03:21 | 32.11917 | -106.96757 | 22899 ft | 439 kts | 101° |
| 2026-05-04 03:21 | 32.11220 | -106.93231 | 21920 ft | 448 kts | 106° |
| 2026-05-04 03:21 | 32.10356 | -106.89639 | 20838 ft | 461 kts | 107° |
| 2026-05-04 03:21 | 32.09491 | -106.85997 | 20177 ft | 460 kts | 106° |
| 2026-05-04 03:22 | 32.08679 | -106.82381 | 19794 ft | 452 kts | 105° |
| 2026-05-04 03:22 | 32.07877 | -106.78824 | 19396 ft | 446 kts | 106° |
| 2026-05-04 03:22 | 32.07045 | -106.75345 | 19171 ft | 435 kts | 107° |
| 2026-05-04 03:22 | 32.06231 | -106.71976 | 19095 ft | 420 kts | 107° |
| 2026-05-04 03:23 | 32.05432 | -106.68714 | 19025 ft | 407 kts | 107° |
| 2026-05-04 03:23 | 32.04655 | -106.65563 | 18957 ft | 394 kts | 107° |
| 2026-05-04 03:23 | 32.03901 | -106.62511 | 18877 ft | 382 kts | 107° |
| 2026-05-04 03:23 | 32.03170 | -106.59545 | 18806 ft | 371 kts | 107° |
| 2026-05-04 03:24 | 32.02461 | -106.56666 | 18742 ft | 361 kts | 107° |
| 2026-05-04 03:24 | 32.01772 | -106.53868 | 18675 ft | 351 kts | 107° |
| 2026-05-04 03:24 | 32.01326 | -106.52058 | 18618 ft | 344 kts | 107° |
| 2026-05-04 03:24 | 32.00666 | -106.49388 | 18576 ft | 334 kts | 107° |
| 2026-05-04 03:25 | 31.99824 | -106.46895 | 18515 ft | 323 kts | 121° |
| 2026-05-04 03:25 | 31.98697 | -106.44659 | 18468 ft | 312 kts | 124° |
| 2026-05-04 03:25 | 31.97565 | -106.42506 | 18312 ft | 307 kts | 124° |
| 2026-05-04 03:25 | 31.96462 | -106.40355 | 18028 ft | 306 kts | 123° |
| 2026-05-04 03:26 | 31.95379 | -106.38198 | 17749 ft | 305 kts | 123° |
| 2026-05-04 03:26 | 31.94308 | -106.36049 | 17488 ft | 304 kts | 123° |
| 2026-05-04 03:26 | 31.93246 | -106.33911 | 17236 ft | 301 kts | 123° |
| 2026-05-04 03:26 | 31.92259 | -106.31748 | 17002 ft | 300 kts | 110° |
| 2026-05-04 03:27 | 31.92073 | -106.29333 | 16719 ft | 298 kts | 76° |
| 2026-05-04 03:27 | 31.92893 | -106.27146 | 16441 ft | 291 kts | 53° |
| 2026-05-04 03:27 | 31.94020 | -106.25169 | 16140 ft | 291 kts | 53° |
| 2026-05-04 03:27 | 31.95257 | -106.23283 | 15757 ft | 291 kts | 42° |
| 2026-05-04 03:28 | 31.96750 | -106.21679 | 15439 ft | 290 kts | 36° |
| 2026-05-04 03:28 | 31.98296 | -106.20155 | 15156 ft | 289 kts | 36° |
| 2026-05-04 03:28 | 31.99850 | -106.18647 | 14891 ft | 289 kts | 36° |
| 2026-05-04 03:28 | 32.01456 | -106.17250 | 14609 ft | 286 kts | 29° |
| 2026-05-04 03:29 | 32.02916 | -106.15647 | 14300 ft | 292 kts | 52° |
| 2026-05-04 03:29 | 32.04094 | -106.13708 | 14058 ft | 290 kts | 52° |
| 2026-05-04 03:29 | 32.05270 | -106.11773 | 13786 ft | 290 kts | 52° |
| 2026-05-04 03:29 | 32.06447 | -106.09847 | 13477 ft | 291 kts | 52° |
| 2026-05-04 03:30 | 32.07640 | -106.07900 | 13039 ft | 296 kts | 52° |
| 2026-05-04 03:30 | 32.08862 | -106.05911 | 12585 ft | 303 kts | 52° |
| 2026-05-04 03:30 | 32.10110 | -106.03882 | 12158 ft | 308 kts | 52° |
| 2026-05-04 03:30 | 32.11359 | -106.01851 | 11741 ft | 313 kts | 52° |
| 2026-05-04 03:31 | 32.12648 | -105.99758 | 11289 ft | 318 kts | 52° |
| 2026-05-04 03:31 | 32.13956 | -105.97631 | 10879 ft | 322 kts | 52° |
| 2026-05-04 03:31 | 32.15283 | -105.95464 | 10352 ft | 330 kts | 52° |
| 2026-05-04 03:31 | 32.16639 | -105.93247 | 9832 ft | 336 kts | 52° |
| 2026-05-04 03:32 | 32.18017 | -105.90995 | 9254 ft | 342 kts | 52° |
| 2026-05-04 03:32 | 32.19422 | -105.88706 | 8860 ft | 341 kts | 52° |
| 2026-05-04 03:32 | 32.20784 | -105.86498 | 8870 ft | 326 kts | 52° |
| 2026-05-04 03:32 | 32.22092 | -105.84375 | 8839 ft | 314 kts | 52° |
| 2026-05-04 03:33 | 32.23351 | -105.82331 | 8811 ft | 301 kts | 52° |
| 2026-05-04 03:33 | 32.24573 | -105.80346 | 8675 ft | 294 kts | 52° |
| 2026-05-04 03:33 | 32.25749 | -105.78436 | 8665 ft | 282 kts | 52° |
| 2026-05-04 03:33 | 32.26877 | -105.76603 | 8663 ft | 270 kts | 52° |
| 2026-05-04 03:34 | 32.27960 | -105.74841 | 8634 ft | 261 kts | 52° |
| 2026-05-04 03:34 | 32.29012 | -105.73120 | 8624 ft | 257 kts | 52° |
| 2026-05-04 03:34 | 32.30052 | -105.71419 | 8622 ft | 255 kts | 52° |
| 2026-05-04 03:34 | 32.31099 | -105.69707 | 8637 ft | 259 kts | 52° |
| 2026-05-04 03:35 | 32.32163 | -105.67968 | 8654 ft | 263 kts | 52° |
| 2026-05-04 03:35 | 32.33177 | -105.66178 | 8632 ft | 263 kts | 65° |
| 2026-05-04 03:35 | 32.33413 | -105.64086 | 8473 ft | 258 kts | 104° |
| 2026-05-04 03:35 | 32.32595 | -105.62287 | 8225 ft | 247 kts | 141° |
| 2026-05-04 03:36 | 32.31187 | -105.61187 | 7967 ft | 241 kts | 162° |
| 2026-05-04 03:36 | 32.29576 | -105.60821 | 7712 ft | 234 kts | 186° |
| 2026-05-04 03:36 | 32.28020 | -105.61268 | 7434 ft | 230 kts | 208° |
| 2026-05-04 03:36 | 32.26741 | -105.62368 | 7176 ft | 227 kts | 230° |
| 2026-05-04 03:37 | 32.25818 | -105.63851 | 7101 ft | 223 kts | 236° |
| 2026-05-04 03:37 | 32.24949 | -105.65368 | 7053 ft | 222 kts | 237° |
| 2026-05-04 03:37 | 32.24089 | -105.66883 | 7011 ft | 222 kts | 237° |
| 2026-05-04 03:37 | 32.23227 | -105.68400 | 6982 ft | 224 kts | 237° |
| 2026-05-04 03:38 | 32.22354 | -105.69935 | 6956 ft | 227 kts | 237° |
| 2026-05-04 03:38 | 32.21471 | -105.71486 | 6926 ft | 228 kts | 237° |
| 2026-05-04 03:38 | 32.20587 | -105.73034 | 6888 ft | 227 kts | 237° |
| 2026-05-04 03:38 | 32.19717 | -105.74557 | 6858 ft | 226 kts | 237° |
| 2026-05-04 03:39 | 32.18835 | -105.76097 | 6811 ft | 226 kts | 236° |
| 2026-05-04 03:39 | 32.17956 | -105.77634 | 6788 ft | 226 kts | 236° |
| 2026-05-04 03:39 | 32.16379 | -105.80386 | 6720 ft | 223 kts | 236° |
| 2026-05-04 03:39 | 32.14696 | -105.83321 | 6598 ft | 207 kts | 236° |
| 2026-05-04 03:40 | 32.13158 | -105.86001 | 6548 ft | 191 kts | 236° |
| 2026-05-04 03:40 | 32.11677 | -105.88576 | 6532 ft | 189 kts | 236° |
| 2026-05-04 03:40 | 32.10205 | -105.91135 | 6501 ft | 189 kts | 236° |
| 2026-05-04 03:40 | 32.04850 | -106.00445 | 6479 ft | 196 kts | 236° |
| 2026-05-04 03:41 | 31.98514 | -106.11409 | 6164 ft | 208 kts | 236° |
| 2026-05-04 03:41 | 31.96843 | -106.14294 | 6079 ft | 206 kts | 236° |
| 2026-05-04 03:41 | 31.96055 | -106.15654 | 6032 ft | 196 kts | 236° |
| 2026-05-04 03:41 | 31.95304 | -106.16950 | 5995 ft | 188 kts | 236° |
| 2026-05-04 03:42 | 31.94569 | -106.18219 | 6049 ft | 189 kts | 236° |
| 2026-05-04 03:42 | 31.93815 | -106.19520 | 6031 ft | 195 kts | 236° |
| 2026-05-04 03:42 | 31.93047 | -106.20845 | 6002 ft | 196 kts | 236° |
| 2026-05-04 03:42 | 31.92278 | -106.22171 | 5970 ft | 195 kts | 236° |
| 2026-05-04 03:43 | 31.91515 | -106.23485 | 5941 ft | 194 kts | 236° |
| 2026-05-04 03:43 | 31.90763 | -106.24780 | 5942 ft | 188 kts | 236° |
| 2026-05-04 03:43 | 31.90031 | -106.26035 | 5928 ft | 184 kts | 234° |
| 2026-05-04 03:43 | 31.89266 | -106.27215 | 5784 ft | 179 kts | 231° |
| 2026-05-04 03:44 | 31.88486 | -106.28325 | 5625 ft | 174 kts | 230° |
| 2026-05-04 03:44 | 31.87721 | -106.29395 | 5485 ft | 165 kts | 230° |
| 2026-05-04 03:44 | 31.87005 | -106.30398 | 5347 ft | 157 kts | 230° |
| 2026-05-04 03:44 | 31.86309 | -106.31372 | 5239 ft | 157 kts | 230° |
| 2026-05-04 03:45 | 31.85599 | -106.32367 | 5076 ft | 160 kts | 230° |
| 2026-05-04 03:45 | 31.84885 | -106.33370 | 4900 ft | 159 kts | 230° |
| 2026-05-04 03:45 | 31.84173 | -106.34366 | 4672 ft | 159 kts | 231° |
| 2026-05-04 03:45 | 31.83469 | -106.35354 | 4414 ft | 157 kts | 231° |
| 2026-05-04 03:46 | 31.82768 | -106.36336 | 4154 ft | 157 kts | 231° |
| 2026-05-04 03:46 | 31.82072 | -106.37312 | 3947 ft | 153 kts | 230° |
| 2026-05-04 03:46 | 31.81461 | -106.38168 | 3946 ft | 116 kts | 229° |
| 2026-05-04 03:46 | 31.81042 | -106.38752 | 3948 ft | 72 kts | 230° |
| 2026-05-04 03:47 | 31.80746 | -106.39166 | 3946 ft | 62 kts | 230° |
| 2026-05-04 03:47 | 31.80485 | -106.39530 | 3948 ft | 54 kts | 230° |
| 2026-05-04 03:47 | 31.80276 | -106.39813 | 3948 ft | 30 kts | 219° |
| 2026-05-04 03:47 | 31.80179 | -106.39780 | 3947 ft | 11 kts | 135° |
| 2026-05-04 03:48 | 31.80116 | -106.39738 | 3946 ft | 10 kts | 172° |
| 2026-05-04 03:48 | 31.80087 | -106.39735 | 3946 ft | 2 kts | 177° |
| 2026-05-04 03:48 | 31.80082 | -106.39735 | 3946 ft | 0 kts | 175° |